MX-0395 weather

CLOSED Palenque Old Airport
Palenque, Chiapas, Mexico

Public forecast

Using degrees Celsius for public forecast. Weather courtesy of forecast.io.

Closest aviation weather report (METAR) to Palenque Old Airport

Closest report is Palenque International Airport, 1.8 nm (3.3 km) W. Retrieved 2019/12/08 00:45 UTC (2 hours ago):

MMPQ 080045Z 00000KT 5SM BKN030TCU 24/22 A2999 RMK 8/200 HZY

Closest aviation forecast (TAF) to Palenque Old Airport

Forecast is more than 6 hours old.

Closest forecast is Palenque International Airport, 1.8 nm (3.3 km) W. Retrieved 2019/12/07 18:32 UTC (8 hours ago):

TAF MMPQ 071632Z 0718/0818 06006KT 6SM HZ SCT015 BKN025 TEMPO 0723/0803 3SM BR HZ BKN010 FM080400 00000KT 3SM BR HZ BKN010 BKN030 TEMPO 0810/0814 1SM BR HZ BKN006 OVC010 FM081500 04005KT 4SM HZ SCT015 BKN020